Time;durP1;ratioP1;P1;durP2;ratioP2;P2;SDS_P1;SDS_P2;PMS_P1;PMS_P2;Temp;Humidity;BMP_temperature;BMP_pressure;BME280_temperature;BME280_humidity;BME280_pressure;Samples;Min_cycle;Max_cycle;Signal;HPM_P1;HPM_P2
2020/12/19 00:01:30;;;;;;;59.15;54.75;;;;;;;12.26;42.30;101491.16;4483678;31;34702;-89
2020/12/19 00:03:59;;;;;;;58.78;54.55;;;;;;;13.14;40.48;101492.75;4471059;31;33644;-89
2020/12/19 00:06:26;;;;;;;58.25;54.15;;;;;;;13.11;40.37;101491.06;4457333;31;33840;-89
2020/12/19 00:08:53;;;;;;;58.70;54.50;;;;;;;13.78;38.96;101490.09;4459087;31;34006;-89
2020/12/19 00:11:33;;;;;;;59.65;55.35;;;;;;;14.17;38.20;101483.31;4462485;31;32325;-89
2020/12/19 00:14:01;;;;;;;58.22;54.03;;;;;;;14.01;38.86;101495.81;4472402;31;33458;-89
2020/12/19 00:16:29;;;;;;;58.10;53.87;;;;;;;13.87;39.08;101487.34;4472370;31;32852;-89
2020/12/19 00:18:57;;;;;;;60.95;56.05;;;;;;;13.76;39.31;101492.75;4459674;31;33369;-88
2020/12/19 00:21:32;;;;;;;59.65;55.20;;;;;;;13.03;40.68;101496.38;4459629;31;33496;-89
2020/12/19 00:24:03;;;;;;;58.53;54.28;;;;;;;12.47;42.43;101495.31;4472398;31;32132;-88
2020/12/19 00:26:35;;;;;;;59.95;55.22;;;;;;;12.65;42.23;101489.88;4472342;31;33674;-89
2020/12/19 00:29:04;;;;;;;59.17;54.38;;;;;;;12.01;43.64;101494.03;4459750;31;32913;-89
2020/12/19 00:31:31;;;;;;;59.17;54.65;;;;;;;11.75;44.03;101483.75;4472303;31;32731;-89
2020/12/19 00:33:59;;;;;;;60.60;56.03;;;;;;;11.08;46.19;101485.94;4471885;31;32655;-89
2020/12/19 00:36:27;;;;;;;60.72;56.17;;;;;;;11.81;44.62;101478.50;4459477;31;32669;-88
2020/12/19 00:38:54;;;;;;;60.83;55.88;;;;;;;12.36;43.37;101480.63;4472206;31;33019;-89
2020/12/19 00:41:24;;;;;;;58.50;53.95;;;;;;;13.38;40.83;101482.88;4485585;31;33154;-89
2020/12/19 00:43:52;;;;;;;59.08;54.78;;;;;;;12.89;41.81;101479.16;4459416;31;32632;-88
2020/12/19 00:46:21;;;;;;;58.42;54.13;;;;;;;11.73;44.62;101485.53;4472100;31;33904;-89
2020/12/19 00:48:50;;;;;;;59.90;55.50;;;;;;;11.88;44.34;101494.97;4472464;31;33613;-89
2020/12/19 00:51:22;;;;;;;58.85;54.13;;;;;;;11.35;45.93;101491.00;4473007;31;34230;-88
2020/12/19 00:53:50;;;;;;;60.10;55.33;;;;;;;11.95;44.06;101481.00;4485989;31;33423;-89
2020/12/19 00:56:20;;;;;;;59.70;55.22;;;;;;;12.06;44.17;101483.50;4472649;31;32855;-89
2020/12/19 00:58:49;;;;;;;59.90;55.20;;;;;;;12.05;44.07;101479.19;4485931;31;34719;-89
2020/12/19 01:01:19;;;;;;;60.83;55.63;;;;;;;12.27;43.59;101482.44;4472663;31;33893;-88
2020/12/19 01:03:48;;;;;;;60.12;55.47;;;;;;;12.00;43.99;101480.06;4459845;31;33363;-89
2020/12/19 01:06:21;;;;;;;61.78;56.85;;;;;;;12.92;41.85;101476.47;4473389;31;32786;-89
2020/12/19 01:08:50;;;;;;;60.58;55.67;;;;;;;12.52;42.35;101480.44;4460700;31;34752;-89
2020/12/19 01:11:34;;;;;;;60.22;55.42;;;;;;;13.08;41.01;101471.91;4478551;31;34442;-88
2020/12/19 01:14:03;;;;;;;61.30;56.28;;;;;;;13.41;40.03;101469.72;4490615;31;34368;-89
2020/12/19 01:16:32;;;;;;;59.55;55.28;;;;;;;12.94;41.25;101467.72;4476882;31;34935;-89
2020/12/19 01:19:04;;;;;;;61.30;56.63;;;;;;;12.73;41.53;101474.09;4486212;31;34068;-89
2020/12/19 01:21:32;;;;;;;60.72;56.03;;;;;;;13.32;40.41;101470.69;4460454;31;32664;-89
2020/12/19 01:24:00;;;;;;;60.10;55.40;;;;;;;12.46;42.05;101462.22;4473062;31;33650;-89
2020/12/19 01:26:28;;;;;;;60.38;55.60;;;;;;;12.37;42.26;101466.66;4460311;31;32795;-88
2020/12/19 01:28:56;;;;;;;59.92;55.35;;;;;;;11.13;45.38;101474.59;4485896;31;34028;-88
2020/12/19 01:31:24;;;;;;;59.03;54.40;;;;;;;11.09;45.65;101472.88;4459502;31;32504;-89
2020/12/19 01:33:51;;;;;;;60.92;56.28;;;;;;;11.61;44.61;101466.44;4472834;31;33999;-89
2020/12/19 01:36:22;;;;;;;59.45;54.88;;;;;;;10.82;46.62;101473.87;4472114;31;32689;-87
2020/12/19 01:38:50;;;;;;;63.63;58.50;;;;;;;10.67;47.14;101465.22;4472164;31;34845;-88
2020/12/19 01:41:20;;;;;;;62.60;57.33;;;;;;;10.38;48.07;101467.06;4459298;31;32838;-89
2020/12/19 01:43:51;;;;;;;61.75;57.00;;;;;;;10.71;47.23;101457.41;4458792;31;32965;-88
2020/12/19 01:46:32;;;;;;;60.20;55.80;;;;;;;10.27;48.41;101461.84;4458964;31;32804;-89
2020/12/19 01:49:02;;;;;;;61.45;56.45;;;;;;;10.50;47.50;101457.50;4499188;31;33760;-88
2020/12/19 01:51:30;;;;;;;61.33;56.20;;;;;;;11.20;46.16;101459.78;4459262;31;32899;-88
2020/12/19 01:53:58;;;;;;;61.75;56.97;;;;;;;11.86;44.52;101458.44;4472255;31;33265;-88
2020/12/19 01:56:38;;;;;;;60.70;56.00;;;;;;;11.35;45.57;101457.06;4458792;31;33732;-88
2020/12/19 01:59:06;;;;;;;62.00;57.40;;;;;;;12.20;43.43;101450.28;4484829;31;33478;-89
2020/12/19 02:01:43;;;;;;;61.58;56.58;;;;;;;12.08;43.52;101447.81;4458681;31;33047;-89
2020/12/19 02:04:12;;;;;;;61.58;56.70;;;;;;;12.17;43.55;101445.09;4471940;31;33360;-88
2020/12/19 02:06:41;;;;;;;61.47;56.58;;;;;;;12.13;43.60;101449.47;4458476;31;33581;-89
2020/12/19 02:09:08;;;;;;;61.95;56.83;;;;;;;12.35;42.92;101444.00;4471562;31;32713;-89
2020/12/19 02:11:36;;;;;;;60.15;55.30;;;;;;;12.69;42.14;101441.88;4458760;31;35012;-89
2020/12/19 02:14:07;;;;;;;60.95;55.90;;;;;;;12.06;43.53;101441.72;4484831;31;33154;-89
2020/12/19 02:16:34;;;;;;;;;;;;;;;12.22;43.33;101432.84;4459186;31;32916;-89
2020/12/19 02:19:12;;;;;;;60.28;55.55;;;;;;;11.97;44.22;101440.06;4472002;31;34152;-88
2020/12/19 02:21:43;;;;;;;61.25;56.35;;;;;;;12.30;43.23;101431.00;4472413;31;34480;-89
2020/12/19 02:24:11;;;;;;;60.33;55.55;;;;;;;12.50;42.72;101436.00;4471851;31;34095;-89
2020/12/19 02:26:39;;;;;;;62.47;57.40;;;;;;;12.76;42.13;101439.19;4471370;31;32793;-89
2020/12/19 02:29:06;;;;;;;59.45;54.67;;;;;;;12.56;42.45;101426.37;4458508;31;32879;-89
2020/12/19 02:31:34;;;;;;;59.97;55.22;;;;;;;12.03;43.74;101422.59;4458646;31;33903;-89
2020/12/19 02:34:02;;;;;;;59.95;55.28;;;;;;;12.35;42.93;101423.09;4471442;31;33290;-89
2020/12/19 02:36:29;;;;;;;60.47;55.53;;;;;;;11.45;45.15;101415.25;4458488;31;32602;-89
2020/12/19 02:38:56;;;;;;;60.88;56.13;;;;;;;12.35;42.91;101418.75;4471300;31;32935;-88
2020/12/19 02:41:24;;;;;;;61.25;56.65;;;;;;;12.14;43.10;101414.62;4470946;31;32967;-89
2020/12/19 02:43:55;;;;;;;60.30;55.80;;;;;;;12.24;43.01;101420.63;4458347;31;32061;-89
2020/12/19 02:46:23;;;;;;;59.78;55.03;;;;;;;13.01;41.20;101424.03;4458810;31;32865;-89
2020/12/19 02:48:51;;;;;;;61.58;56.78;;;;;;;11.76;43.96;101417.59;4471331;31;34202;-89
2020/12/19 02:51:19;;;;;;;60.90;56.17;;;;;;;12.85;41.69;101419.00;4471364;31;33359;-89
2020/12/19 02:53:47;;;;;;;60.00;55.20;;;;;;;12.96;41.28;101415.38;4471418;31;34010;-89
2020/12/19 02:56:15;;;;;;;60.38;55.85;;;;;;;13.30;40.51;101410.50;4471340;31;33988;-89
2020/12/19 02:58:42;;;;;;;60.28;55.75;;;;;;;13.43;40.17;101407.72;4471377;31;34057;-88
2020/12/19 03:01:10;;;;;;;61.65;56.78;;;;;;;13.21;40.41;101394.94;4458406;31;32740;-89
2020/12/19 03:03:37;;;;;;;61.03;56.35;;;;;;;13.02;41.22;101405.69;4471274;31;32617;-89
2020/12/19 03:06:09;;;;;;;60.03;55.55;;;;;;;13.30;40.34;101402.66;4471724;31;32436;-88
2020/12/19 03:08:36;;;;;;;59.88;55.38;;;;;;;12.39;42.23;101400.44;4471107;31;34002;-88
2020/12/19 03:11:04;;;;;;;61.70;56.70;;;;;;;13.12;40.70;101400.31;4484457;31;34563;-89
2020/12/19 03:13:31;;;;;;;62.38;57.50;;;;;;;12.49;41.95;101402.91;4484379;31;33498;-89
2020/12/19 03:15:59;;;;;;;60.03;55.58;;;;;;;12.39;42.52;101392.59;4471437;31;34232;-89
2020/12/19 03:18:27;;;;;;;60.10;55.08;;;;;;;12.82;41.51;101397.28;4458483;31;34044;-88
2020/12/19 03:20:55;;;;;;;60.88;56.30;;;;;;;13.49;39.73;101399.78;4470936;31;33506;-89
2020/12/19 03:23:23;;;;;;;60.05;55.40;;;;;;;12.84;41.29;101405.94;4458280;31;34028;-88
2020/12/19 03:25:50;;;;;;;60.42;56.00;;;;;;;12.77;41.54;101401.69;4458043;31;32261;-88
2020/12/19 03:28:18;;;;;;;59.65;55.00;;;;;;;12.56;42.14;101401.06;4470928;31;33935;-88
2020/12/19 03:30:46;;;;;;;60.42;55.72;;;;;;;13.60;39.76;101389.13;4471488;31;33765;-88
2020/12/19 03:33:13;;;;;;;63.15;58.10;;;;;;;13.30;40.25;101394.81;4469074;31;32669;-89
2020/12/19 03:35:41;;;;;;;60.20;55.45;;;;;;;13.44;39.89;101391.12;4466675;31;33957;-89
2020/12/19 03:38:09;;;;;;;61.22;56.55;;;;;;;13.56;39.86;101390.06;4484233;31;33514;-89
2020/12/19 03:40:36;;;;;;;60.55;55.78;;;;;;;13.43;40.05;101392.87;4458010;31;33052;-89
2020/12/19 03:43:03;;;;;;;60.58;55.85;;;;;;;13.49;39.89;101394.53;4483403;31;33635;-89
2020/12/19 03:45:32;;;;;;;61.63;56.83;;;;;;;13.64;39.42;101383.81;4483976;31;33804;-89
2020/12/19 03:47:59;;;;;;;60.28;55.67;;;;;;;12.38;42.03;101386.50;4458084;31;32655;-88
2020/12/19 03:50:27;;;;;;;60.28;55.35;;;;;;;12.13;43.09;101393.75;4470637;31;34088;-89
2020/12/19 03:52:55;;;;;;;60.65;55.90;;;;;;;12.35;42.81;101391.75;4470808;31;33765;-89
2020/12/19 03:55:22;;;;;;;62.55;57.42;;;;;;;11.53;44.43;101397.78;4470566;31;32891;-88
2020/12/19 03:57:50;;;;;;;60.45;55.75;;;;;;;12.40;42.88;101400.41;4457990;31;33206;-88
2020/12/19 04:00:18;;;;;;;60.45;55.50;;;;;;;13.08;40.97;101393.41;4457867;31;32728;-89
2020/12/19 04:02:45;;;;;;;60.38;55.78;;;;;;;12.89;41.41;101401.50;4470722;31;33363;-89
2020/12/19 04:05:13;;;;;;;60.00;55.42;;;;;;;13.56;39.92;101404.03;4470714;31;34628;-89
2020/12/19 04:07:40;;;;;;;61.30;56.50;;;;;;;13.48;40.02;101400.66;4470417;31;33765;-89
2020/12/19 04:10:08;;;;;;;59.88;55.28;;;;;;;13.55;39.97;101389.19;4457691;31;34264;-89
2020/12/19 04:12:36;;;;;;;60.22;55.75;;;;;;;13.65;39.79;101393.41;4457705;31;32274;-89
2020/12/19 04:15:05;;;;;;;60.15;55.50;;;;;;;13.31;40.48;101390.44;4483535;31;33535;-89
2020/12/19 04:17:32;;;;;;;62.67;57.62;;;;;;;13.62;39.71;101390.81;4457628;31;33068;-89
2020/12/19 04:20:00;;;;;;;61.15;56.53;;;;;;;13.55;39.98;101389.19;4457579;31;32662;-89
2020/12/19 04:22:27;;;;;;;59.38;54.95;;;;;;;13.29;40.53;101392.22;4470501;31;32333;-89
2020/12/19 04:24:54;;;;;;;60.28;55.67;;;;;;;13.50;40.21;101383.19;4457459;31;32513;-89
2020/12/19 04:27:22;;;;;;;61.42;56.50;;;;;;;13.85;39.36;101387.81;4457377;31;33783;-89
2020/12/19 04:29:49;;;;;;;61.22;56.42;;;;;;;13.71;39.56;101392.41;4483137;31;33962;-88
2020/12/19 04:32:18;;;;;;;60.08;55.22;;;;;;;13.90;39.21;101379.84;4457650;31;32620;-89
2020/12/19 04:34:45;;;;;;;59.97;55.17;;;;;;;14.14;38.57;101383.75;4469836;31;34179;-88
2020/12/19 04:37:21;;;;;;;60.42;55.83;;;;;;;13.73;39.21;101387.16;4483397;31;33873;-88
2020/12/19 04:39:49;;;;;;;60.67;56.00;;;;;;;12.97;41.29;101380.47;4471325;31;32661;-89
2020/12/19 04:42:16;;;;;;;60.78;55.97;;;;;;;13.26;40.78;101387.03;4485244;31;33586;-89
2020/12/19 04:44:45;;;;;;;60.12;55.47;;;;;;;13.09;41.16;101395.12;4485095;31;33510;-89
2020/12/19 04:47:14;;;;;;;61.55;56.58;;;;;;;13.73;39.69;101389.78;4459582;31;34366;-88
2020/12/19 04:49:45;;;;;;;59.40;54.80;;;;;;;12.61;42.02;101391.44;4472117;31;34590;-88
2020/12/19 04:52:13;;;;;;;59.83;55.38;;;;;;;13.01;41.40;101396.09;4470912;31;32200;-89
2020/12/19 04:54:40;;;;;;;61.05;56.42;;;;;;;13.32;40.63;101397.38;4498180;31;33965;-88
2020/12/19 04:57:17;;;;;;;59.60;55.08;;;;;;;12.38;43.08;101396.97;4459574;31;33986;-89
2020/12/19 04:59:45;;;;;;;60.42;55.60;;;;;;;12.32;43.32;101394.41;4472459;31;32749;-89
2020/12/19 05:02:13;;;;;;;60.90;56.10;;;;;;;12.62;42.79;101395.78;4472465;31;33311;-88
2020/12/19 05:04:41;;;;;;;59.90;55.12;;;;;;;11.89;44.47;101406.16;4472661;31;33723;-89
2020/12/19 05:07:11;;;;;;;60.75;56.13;;;;;;;11.01;46.86;101405.09;4472430;31;33561;-88
2020/12/19 05:09:40;;;;;;;61.15;56.22;;;;;;;11.41;46.22;101408.28;4472231;31;33433;-89
2020/12/19 05:12:09;;;;;;;62.15;57.10;;;;;;;11.27;46.22;101405.81;4472113;31;32232;-89
2020/12/19 05:14:37;;;;;;;62.17;56.90;;;;;;;11.08;46.80;101408.53;4459501;31;32743;-89
2020/12/19 05:17:04;;;;;;;60.72;55.95;;;;;;;11.38;46.16;101401.38;4471981;31;33094;-88
2020/12/19 05:19:32;;;;;;;61.17;56.17;;;;;;;11.14;46.83;101408.50;4472061;31;34348;-89
2020/12/19 05:22:00;;;;;;;62.22;57.05;;;;;;;10.85;47.71;101406.09;4472415;31;34045;-88
2020/12/19 05:24:30;;;;;;;61.88;56.83;;;;;;;10.99;47.24;101414.66;4459110;31;32770;-88
2020/12/19 05:26:58;;;;;;;62.03;56.95;;;;;;;11.65;45.41;101410.72;4471986;31;34015;-89
2020/12/19 05:29:26;;;;;;;60.20;55.40;;;;;;;11.15;46.84;101410.22;4459312;31;32882;-88
2020/12/19 05:31:56;;;;;;;62.47;57.22;;;;;;;11.54;45.77;101415.19;4472279;31;34139;-89
2020/12/19 05:34:25;;;;;;;62.58;57.58;;;;;;;11.61;45.97;101406.41;4471981;31;33719;-88
2020/12/19 05:36:54;;;;;;;61.17;56.35;;;;;;;12.17;44.34;101409.38;4458947;31;33951;-88
2020/12/19 05:39:21;;;;;;;62.10;56.95;;;;;;;11.23;46.95;101412.78;4458987;31;33638;-88
2020/12/19 05:41:49;;;;;;;61.17;56.58;;;;;;;11.31;46.73;101416.19;4472357;31;34317;-89
2020/12/19 05:44:19;;;;;;;61.37;56.47;;;;;;;11.77;45.81;101414.13;4472249;31;34297;-89
2020/12/19 05:46:48;;;;;;;61.17;56.45;;;;;;;12.47;44.07;101409.91;4472366;31;34188;-89
2020/12/19 05:49:17;;;;;;;61.42;56.60;;;;;;;12.14;44.69;101416.41;4484719;31;32648;-88
2020/12/19 05:51:45;;;;;;;62.08;57.15;;;;;;;11.64;46.00;101414.19;4471769;31;32345;-89
2020/12/19 05:54:14;;;;;;;62.50;57.20;;;;;;;11.33;46.81;101418.81;4484952;31;33483;-89
2020/12/19 05:56:43;;;;;;;60.78;56.03;;;;;;;11.30;46.89;101416.22;4485197;31;33825;-89
2020/12/19 05:59:13;;;;;;;61.08;56.17;;;;;;;10.92;48.40;101420.81;4471780;31;32861;-88
2020/12/19 06:01:44;;;;;;;60.97;56.35;;;;;;;11.69;46.27;101425.47;4458961;31;32265;-89
2020/12/19 06:04:13;;;;;;;60.35;55.80;;;;;;;11.56;46.79;101425.59;4458968;31;32847;-89
2020/12/19 06:06:42;;;;;;;60.33;55.50;;;;;;;11.23;47.39;101422.38;4471365;31;34558;-88
2020/12/19 06:09:11;;;;;;;60.67;55.92;;;;;;;10.94;48.20;101428.62;4471482;31;33150;-89
2020/12/19 06:12:05;;;;;;;63.47;58.30;;;;;;;11.43;46.95;101430.91;4458609;31;32639;-89
2020/12/19 06:14:39;;;;;;;61.37;56.37;;;;;;;11.28;47.90;101426.66;4471386;31;32994;-88
2020/12/19 06:17:16;;;;;;;61.08;56.08;;;;;;;10.95;48.65;101426.00;4471410;31;33451;-88
2020/12/19 06:19:46;;;;;;;62.10;57.22;;;;;;;11.84;46.10;101424.47;4458577;31;32375;-88
2020/12/19 06:22:14;;;;;;;61.37;56.45;;;;;;;10.98;48.27;101427.72;4473491;31;33230;-89
2020/12/19 06:24:47;;;;;;;61.28;56.45;;;;;;;10.58;49.46;101433.13;4487358;31;34034;-88
2020/12/19 06:27:22;;;;;;;62.55;57.65;;;;;;;11.67;46.60;101419.41;4460913;31;32853;-89
2020/12/19 06:29:50;;;;;;;64.97;59.80;;;;;;;11.87;46.02;101426.19;4500755;31;34599;-89
2020/12/19 06:32:23;;;;;;;66.12;60.70;;;;;;;12.22;45.04;101429.34;4473753;31;34114;-89
2020/12/19 06:35:09;;;;;;;64.35;59.33;;;;;;;12.39;44.26;101434.41;4459918;31;32942;-89
2020/12/19 06:37:41;;;;;;;63.10;58.17;;;;;;;11.82;45.97;101435.81;4467795;31;32998;-88
2020/12/19 06:40:17;;;;;;;65.90;60.47;;;;;;;11.73;46.09;101441.13;4472471;31;34534;-89
2020/12/19 06:42:50;;;;;;;64.32;59.00;;;;;;;12.40;44.68;101439.59;4458940;31;31906;-89
2020/12/19 06:45:27;;;;;;;63.08;57.95;;;;;;;12.92;43.40;101435.47;4471729;31;33980;-89
2020/12/19 06:47:56;;;;;;;65.12;59.88;;;;;;;12.96;43.29;101429.34;4458659;31;33907;-88
2020/12/19 06:50:25;;;;;;;66.00;60.55;;;;;;;12.65;44.16;101437.56;4470188;31;33607;-88
2020/12/19 06:52:58;;;;;;;61.63;56.33;;;;;;;12.71;43.87;101436.66;4457811;31;33489;-89
2020/12/19 06:55:29;;;;;;;61.47;56.42;;;;;;;12.59;44.19;101435.06;4471291;31;33034;-88
2020/12/19 06:57:57;;;;;;;63.90;58.80;;;;;;;12.82;43.77;101439.12;4457909;31;32906;-88
2020/12/19 07:00:29;;;;;;;63.92;58.55;;;;;;;12.20;45.56;101445.06;4470961;31;33221;-89
2020/12/19 07:03:02;;;;;;;63.28;58.38;;;;;;;11.88;46.43;101448.81;4458218;31;33048;-89
2020/12/19 07:05:31;;;;;;;64.97;59.58;;;;;;;11.75;46.51;101450.66;4470678;31;32838;-89
2020/12/19 07:08:17;;;;;;;63.45;58.35;;;;;;;11.97;46.08;101451.38;4484542;31;34411;-89
2020/12/19 07:10:45;;;;;;;67.15;61.55;;;;;;;11.85;46.14;101457.53;4471046;31;33655;-88
2020/12/19 07:13:13;;;;;;;63.65;58.28;;;;;;;12.53;44.53;101456.03;4458454;31;32385;-88
2020/12/19 07:15:51;;;;;;;61.78;56.97;;;;;;;12.88;43.49;101452.09;4484605;31;34723;-88
2020/12/19 07:18:30;;;;;;;65.65;60.42;;;;;;;11.99;45.42;101454.84;4456806;31;33302;-88
2020/12/19 07:21:02;;;;;;;66.40;61.20;;;;;;;12.11;45.33;101455.59;4457225;31;33171;-89
2020/12/19 07:23:32;;;;;;;67.85;62.33;;;;;;;12.58;44.27;101454.22;4457381;31;32819;-89
2020/12/19 07:26:00;;;;;;;66.80;61.47;;;;;;;12.93;43.31;101458.13;4470081;31;32830;-88
2020/12/19 07:28:28;;;;;;;60.05;55.63;;;;;;;12.34;44.54;101456.22;4470198;31;33851;-88
2020/12/19 07:30:56;;;;;;;62.83;58.20;;;;;;;11.27;44.96;101448.41;4470786;31;32786;-88
2020/12/19 07:33:24;;;;;;;66.22;61.35;;;;;;;12.10;43.42;101453.87;4483700;31;34301;-89
2020/12/19 07:35:51;;;;;;;64.90;60.03;;;;;;;10.26;49.19;101455.75;4464255;31;179601;-88
2020/12/19 07:38:20;;;;;;;67.40;61.70;;;;;;;11.15;47.23;101456.31;4456963;31;33214;-88
2020/12/19 07:40:57;;;;;;;65.97;60.83;;;;;;;10.13;49.95;101456.66;4456622;31;32852;-89
2020/12/19 07:43:24;;;;;;;68.35;63.05;;;;;;;9.62;51.33;101459.31;4469880;31;33770;-88
2020/12/19 07:45:57;;;;;;;68.25;62.85;;;;;;;8.91;54.54;101460.03;4469781;31;34298;-88
2020/12/19 07:48:24;;;;;;;63.13;57.92;;;;;;;9.34;52.64;101456.66;4457394;31;34121;-89
2020/12/19 07:50:52;;;;;;;63.38;58.35;;;;;;;9.87;51.74;101454.97;4470546;31;32883;-88
2020/12/19 07:53:19;;;;;;;66.43;61.00;;;;;;;9.39;53.03;101456.66;4457149;31;32692;-88
2020/12/19 07:55:51;;;;;;;67.93;62.33;;;;;;;9.12;54.08;101459.22;4483228;31;33611;-89
2020/12/19 07:58:20;;;;;;;66.07;60.65;;;;;;;9.59;52.55;101456.72;4469881;31;32931;-88
2020/12/19 08:00:48;;;;;;;67.87;62.20;;;;;;;9.77;52.23;101451.50;4470806;31;33602;-89
2020/12/19 08:03:16;;;;;;;64.35;59.45;;;;;;;9.78;52.10;101454.97;4458271;31;32479;-88
2020/12/19 08:05:43;;;;;;;64.10;58.87;;;;;;;10.04;51.29;101447.16;4471563;31;33975;-88
2020/12/19 08:08:11;;;;;;;63.42;58.55;;;;;;;10.27;50.20;101449.69;4471891;31;33001;-89
2020/12/19 08:10:39;;;;;;;61.28;56.40;;;;;;;10.93;48.75;101445.12;4471346;31;32689;-88
2020/12/19 08:13:10;;;;;;;60.53;55.90;;;;;;;10.47;49.17;101446.19;4484162;31;32502;-88
2020/12/19 08:15:39;;;;;;;60.58;55.78;;;;;;;10.42;49.02;101450.56;4471731;31;33780;-89
2020/12/19 08:18:07;;;;;;;66.40;60.80;;;;;;;10.62;49.00;101446.16;4471042;31;34881;-89
2020/12/19 08:20:36;;;;;;;66.78;61.33;;;;;;;11.07;48.44;101447.69;4469407;31;32821;-89
2020/12/19 08:23:07;;;;;;;64.78;59.97;;;;;;;11.12;48.41;101448.53;4457091;31;32791;-88
2020/12/19 08:25:35;;;;;;;63.22;58.22;;;;;;;11.39;47.49;101446.59;4469562;31;33886;-89
2020/12/19 08:28:03;;;;;;;64.65;59.58;;;;;;;12.35;44.83;101447.50;4456776;31;32855;-88
2020/12/19 08:30:32;;;;;;;62.58;57.80;;;;;;;11.78;45.66;101442.81;4471484;31;33612;-89
2020/12/19 08:33:08;;;;;;;63.97;58.87;;;;;;;11.06;48.05;101445.94;4458490;31;33483;-88
2020/12/19 08:35:42;;;;;;;63.72;58.83;;;;;;;10.21;50.04;101454.94;4466796;31;34290;-89
2020/12/19 08:38:11;;;;;;;65.78;60.35;;;;;;;9.68;52.17;101459.31;4471422;31;34087;-88
2020/12/19 08:40:41;;;;;;;63.97;59.10;;;;;;;10.16;50.75;101451.47;4458503;31;33602;-89
2020/12/19 08:43:09;;;;;;;63.53;58.80;;;;;;;11.50;47.13;101450.00;4471989;31;33784;-88
2020/12/19 08:45:40;;;;;;;63.50;58.60;;;;;;;11.41;47.11;101442.22;4458502;31;33151;-88
2020/12/19 08:48:18;;;;;;;60.83;56.22;;;;;;;11.70;46.09;101442.03;4472455;31;34830;-89
2020/12/19 08:50:47;;;;;;;64.93;59.63;;;;;;;12.18;44.60;101447.69;4484850;31;34530;-88
2020/12/19 08:53:20;;;;;;;62.67;58.20;;;;;;;11.82;45.79;101443.63;4458815;31;32637;-88
2020/12/19 08:55:48;;;;;;;63.75;59.03;;;;;;;11.77;45.65;101448.91;4458653;31;33868;-89
2020/12/19 08:58:27;;;;;;;62.28;57.55;;;;;;;10.96;47.52;101453.81;4484486;31;33565;-88
2020/12/19 09:00:58;;;;;;;60.63;56.03;;;;;;;11.77;45.32;101443.69;4471644;31;32799;-89
2020/12/19 09:03:28;;;;;;;62.33;57.45;;;;;;;11.53;45.73;101452.59;4472480;31;33544;-89
2020/12/19 09:06:04;;;;;;;63.70;58.83;;;;;;;10.72;48.78;101446.13;4471715;31;33646;-89
2020/12/19 09:08:33;;;;;;;63.30;58.35;;;;;;;10.50;49.13;101452.28;4484698;31;34924;-88
2020/12/19 09:11:00;;;;;;;64.90;59.75;;;;;;;10.44;49.13;101447.06;4458798;31;34383;-90
2020/12/19 09:13:28;;;;;;;63.55;58.92;;;;;;;9.75;50.86;101450.63;4458280;31;32911;-88
2020/12/19 09:16:04;;;;;;;63.58;58.83;;;;;;;10.45;49.24;101443.59;4458516;31;33352;-88
2020/12/19 09:18:33;;;;;;;63.92;59.05;;;;;;;10.78;48.35;101446.97;4458159;31;32723;-89
2020/12/19 09:21:02;;;;;;;64.78;59.88;;;;;;;11.08;47.75;101450.28;4470934;31;32391;-89
2020/12/19 09:23:29;;;;;;;59.58;55.33;;;;;;;11.53;46.38;101442.16;4471353;31;33197;-89
2020/12/19 09:25:58;;;;;;;59.55;55.00;;;;;;;12.10;44.69;101435.56;4472050;31;33473;-89
2020/12/19 09:28:27;;;;;;;61.15;56.55;;;;;;;11.14;46.64;101432.00;4471126;31;33384;-88
2020/12/19 09:30:56;;;;;;;60.97;56.58;;;;;;;11.10;46.69;101437.22;4470830;31;33238;-89
2020/12/19 09:33:23;;;;;;;60.00;55.58;;;;;;;11.38;45.58;101440.53;4481801;31;33368;-89
2020/12/19 09:35:53;;;;;;;58.42;54.42;;;;;;;11.16;45.89;101439.81;4468787;31;33061;-89
2020/12/19 09:38:21;;;;;;;59.20;55.20;;;;;;;12.26;43.40;101438.88;4472703;31;33547;-88
2020/12/19 09:40:48;;;;;;;60.83;56.72;;;;;;;10.66;47.18;101440.06;4458998;31;32980;-89
2020/12/19 09:43:17;;;;;;;60.95;56.70;;;;;;;9.64;49.55;101442.81;4473420;31;33728;-88
2020/12/19 09:45:45;;;;;;;56.22;52.42;;;;;;;9.63;49.69;101446.28;4472903;31;33919;-88
2020/12/19 09:48:13;;;;;;;59.83;55.55;;;;;;;10.98;46.04;101433.81;4472828;31;32591;-89
2020/12/19 09:50:41;;;;;;;59.58;55.47;;;;;;;9.50;50.34;101444.56;4486052;31;33979;-89
2020/12/19 09:53:08;;;;;;;58.58;54.35;;;;;;;10.25;49.27;101441.03;4469010;31;32227;-88
2020/12/19 09:55:35;;;;;;;59.13;55.12;;;;;;;11.04;45.99;101432.91;4471363;31;33539;-89
2020/12/19 09:58:04;;;;;;;59.53;55.42;;;;;;;11.39;44.86;101426.59;4470564;31;34253;-88
2020/12/19 10:00:31;;;;;;;60.47;56.17;;;;;;;11.77;43.92;101424.56;4458338;31;32830;-89
2020/12/19 10:02:59;;;;;;;57.25;53.08;;;;;;;10.97;46.26;101429.47;4458639;31;33314;-89
2020/12/19 10:05:28;;;;;;;59.03;54.75;;;;;;;10.44;47.91;101422.78;4459061;31;33416;-89
2020/12/19 10:07:57;;;;;;;59.13;55.03;;;;;;;10.66;47.46;101419.22;4471645;31;33214;-89
2020/12/19 10:10:46;;;;;;;56.22;52.17;;;;;;;10.20;48.14;101421.94;4462340;31;32948;-88
2020/12/19 10:13:13;;;;;;;58.92;54.90;;;;;;;11.19;45.98;101422.41;4472042;31;32608;-88
2020/12/19 10:15:41;;;;;;;58.40;54.40;;;;;;;11.07;46.11;101412.00;4471026;31;33815;-89
2020/12/19 10:18:09;;;;;;;61.47;57.25;;;;;;;11.62;44.62;101413.37;4457875;31;33749;-89
2020/12/19 10:20:38;;;;;;;59.70;55.75;;;;;;;10.65;46.50;101420.06;4470952;31;32811;-89
2020/12/19 10:23:06;;;;;;;60.45;56.35;;;;;;;11.77;44.01;101414.13;4457943;31;33659;-89
2020/12/19 10:25:34;;;;;;;60.40;56.30;;;;;;;10.29;47.46;101424.50;4457888;31;34450;-89
2020/12/19 10:28:01;;;;;;;60.10;55.90;;;;;;;9.97;48.27;101417.66;4457718;31;33056;-87
2020/12/19 10:30:29;;;;;;;60.12;55.97;;;;;;;10.03;48.33;101419.34;4484031;31;34504;-88
2020/12/19 10:32:56;;;;;;;59.53;55.38;;;;;;;10.56;46.94;101414.91;4470901;31;34029;-88
2020/12/19 10:35:24;;;;;;;59.65;55.65;;;;;;;11.58;44.56;101414.28;4470252;31;33915;-88
2020/12/19 10:37:52;;;;;;;61.03;57.00;;;;;;;10.72;46.51;101409.63;4470683;31;33081;-88
2020/12/19 10:40:19;;;;;;;58.90;54.88;;;;;;;12.30;42.86;101412.72;4470720;31;33977;-88
2020/12/19 10:42:46;;;;;;;58.05;54.03;;;;;;;12.10;43.37;101404.22;4471860;31;34004;-89
2020/12/19 10:45:15;;;;;;;59.70;55.45;;;;;;;11.63;44.31;101402.06;4471073;31;33649;-89
2020/12/19 10:47:42;;;;;;;62.10;57.78;;;;;;;11.28;44.92;101400.56;4457879;31;34015;-88
2020/12/19 10:50:10;;;;;;;62.88;58.47;;;;;;;12.12;43.27;101397.25;4470398;31;33020;-89
2020/12/19 10:52:38;;;;;;;59.45;55.28;;;;;;;11.96;43.82;101392.16;4469762;31;34018;-88
2020/12/19 10:55:06;;;;;;;59.13;54.83;;;;;;;11.25;45.28;101392.78;4484285;31;33214;-89
2020/12/19 10:57:35;;;;;;;61.00;56.45;;;;;;;10.71;46.17;101397.47;4471194;31;34741;-88
2020/12/19 11:00:05;;;;;;;58.55;54.47;;;;;;;10.78;46.59;101402.63;4470775;31;32746;-88
2020/12/19 11:02:32;;;;;;;59.35;54.80;;;;;;;11.00;45.84;101398.16;4484683;31;34444;-89
2020/12/19 11:04:59;;;;;;;58.58;54.30;;;;;;;11.00;45.69;101389.47;4458577;31;32422;-89
2020/12/19 11:07:27;;;;;;;57.67;53.47;;;;;;;11.51;44.67;101394.31;4471402;31;33308;-89
2020/12/19 11:09:54;;;;;;;58.15;53.75;;;;;;;11.36;44.77;101388.31;4471316;31;34102;-89
2020/12/19 11:12:22;;;;;;;57.10;53.00;;;;;;;11.03;45.59;101392.94;4460057;31;33074;-89
2020/12/19 11:14:50;;;;;;;57.65;53.65;;;;;;;11.51;44.58;101382.13;4473577;31;34517;-88
2020/12/19 11:17:17;;;;;;;57.20;53.22;;;;;;;11.81;43.63;101379.25;4473147;31;34689;-88
2020/12/19 11:19:46;;;;;;;57.75;53.85;;;;;;;11.78;43.50;101377.53;4474063;31;34948;-88